sensor_id;sensor_type;location;lat;lon;timestamp;P1;durP1;ratioP1;P2;durP2;ratioP2
81648;SDS011;71057;51.436;6.768;2023-12-20T00:01:16;12.52;;;6.75;;
81648;SDS011;71057;51.436;6.768;2023-12-20T00:03:41;13.82;;;7.28;;
81648;SDS011;71057;51.436;6.768;2023-12-20T00:06:07;15.67;;;8.23;;
81648;SDS011;71057;51.436;6.768;2023-12-20T00:08:32;19.27;;;8.65;;
81648;SDS011;71057;51.436;6.768;2023-12-20T00:10:57;19.13;;;8.27;;
81648;SDS011;71057;51.436;6.768;2023-12-20T00:13:23;17.53;;;7.43;;
81648;SDS011;71057;51.436;6.768;2023-12-20T00:15:48;16.90;;;7.80;;
81648;SDS011;71057;51.436;6.768;2023-12-20T00:18:13;16.42;;;7.60;;
81648;SDS011;71057;51.436;6.768;2023-12-20T00:20:39;14.60;;;6.75;;
81648;SDS011;71057;51.436;6.768;2023-12-20T00:23:04;17.00;;;7.80;;
81648;SDS011;71057;51.436;6.768;2023-12-20T00:25:30;12.35;;;6.97;;
81648;SDS011;71057;51.436;6.768;2023-12-20T00:27:55;17.38;;;7.63;;
81648;SDS011;71057;51.436;6.768;2023-12-20T00:30:20;20.55;;;7.88;;
81648;SDS011;71057;51.436;6.768;2023-12-20T00:32:46;12.30;;;6.10;;
81648;SDS011;71057;51.436;6.768;2023-12-20T00:35:14;14.57;;;5.85;;
81648;SDS011;71057;51.436;6.768;2023-12-20T00:37:43;14.50;;;6.68;;
81648;SDS011;71057;51.436;6.768;2023-12-20T00:40:09;14.37;;;6.63;;
81648;SDS011;71057;51.436;6.768;2023-12-20T00:42:34;15.43;;;6.80;;
81648;SDS011;71057;51.436;6.768;2023-12-20T00:45:01;11.40;;;6.07;;
81648;SDS011;71057;51.436;6.768;2023-12-20T00:47:27;12.88;;;6.68;;
81648;SDS011;71057;51.436;6.768;2023-12-20T00:49:52;13.03;;;5.67;;
81648;SDS011;71057;51.436;6.768;2023-12-20T00:52:17;13.77;;;5.60;;
81648;SDS011;71057;51.436;6.768;2023-12-20T00:54:43;13.15;;;6.03;;
81648;SDS011;71057;51.436;6.768;2023-12-20T00:57:09;11.77;;;5.03;;
81648;SDS011;71057;51.436;6.768;2023-12-20T00:59:34;13.48;;;5.13;;
81648;SDS011;71057;51.436;6.768;2023-12-20T01:01:59;13.68;;;5.82;;
81648;SDS011;71057;51.436;6.768;2023-12-20T01:04:25;12.53;;;7.20;;
81648;SDS011;71057;51.436;6.768;2023-12-20T01:06:50;11.40;;;6.53;;
81648;SDS011;71057;51.436;6.768;2023-12-20T01:09:15;16.87;;;6.97;;
81648;SDS011;71057;51.436;6.768;2023-12-20T01:11:40;14.17;;;6.87;;
81648;SDS011;71057;51.436;6.768;2023-12-20T01:14:06;12.37;;;7.90;;
81648;SDS011;71057;51.436;6.768;2023-12-20T01:16:31;14.77;;;7.23;;
81648;SDS011;71057;51.436;6.768;2023-12-20T01:18:56;13.33;;;7.57;;
81648;SDS011;71057;51.436;6.768;2023-12-20T01:21:21;16.70;;;7.90;;
81648;SDS011;71057;51.436;6.768;2023-12-20T01:23:47;14.52;;;7.95;;
81648;SDS011;71057;51.436;6.768;2023-12-20T01:26:12;16.70;;;6.87;;
81648;SDS011;71057;51.436;6.768;2023-12-20T01:28:38;14.27;;;7.13;;
81648;SDS011;71057;51.436;6.768;2023-12-20T01:31:03;14.35;;;7.30;;
81648;SDS011;71057;51.436;6.768;2023-12-20T01:33:29;11.02;;;6.25;;
81648;SDS011;71057;51.436;6.768;2023-12-20T01:35:54;10.07;;;5.47;;
81648;SDS011;71057;51.436;6.768;2023-12-20T01:38:19;14.70;;;6.38;;
81648;SDS011;71057;51.436;6.768;2023-12-20T01:40:45;13.70;;;7.00;;
81648;SDS011;71057;51.436;6.768;2023-12-20T01:43:11;15.30;;;6.40;;
81648;SDS011;71057;51.436;6.768;2023-12-20T01:45:37;10.80;;;5.68;;
81648;SDS011;71057;51.436;6.768;2023-12-20T01:48:03;18.67;;;6.43;;
81648;SDS011;71057;51.436;6.768;2023-12-20T01:50:30;11.25;;;6.03;;
81648;SDS011;71057;51.436;6.768;2023-12-20T01:52:56;14.07;;;6.22;;
81648;SDS011;71057;51.436;6.768;2023-12-20T01:55:25;11.50;;;6.65;;
81648;SDS011;71057;51.436;6.768;2023-12-20T01:57:52;13.32;;;7.00;;
81648;SDS011;71057;51.436;6.768;2023-12-20T02:00:18;17.90;;;6.78;;
81648;SDS011;71057;51.436;6.768;2023-12-20T02:02:43;12.48;;;7.07;;
81648;SDS011;71057;51.436;6.768;2023-12-20T02:05:10;14.00;;;6.20;;
81648;SDS011;71057;51.436;6.768;2023-12-20T02:07:35;17.13;;;6.78;;
81648;SDS011;71057;51.436;6.768;2023-12-20T02:10:01;12.23;;;6.07;;
81648;SDS011;71057;51.436;6.768;2023-12-20T02:12:27;12.38;;;6.15;;
81648;SDS011;71057;51.436;6.768;2023-12-20T02:14:52;14.43;;;6.33;;
81648;SDS011;71057;51.436;6.768;2023-12-20T02:17:19;10.18;;;6.65;;
81648;SDS011;71057;51.436;6.768;2023-12-20T02:19:44;13.77;;;6.65;;
81648;SDS011;71057;51.436;6.768;2023-12-20T02:22:12;13.67;;;6.07;;
81648;SDS011;71057;51.436;6.768;2023-12-20T02:24:38;12.50;;;6.47;;
81648;SDS011;71057;51.436;6.768;2023-12-20T02:27:05;12.95;;;6.65;;
81648;SDS011;71057;51.436;6.768;2023-12-20T02:31:57;12.07;;;5.80;;
81648;SDS011;71057;51.436;6.768;2023-12-20T02:34:23;12.40;;;5.60;;
81648;SDS011;71057;51.436;6.768;2023-12-20T02:36:48;12.60;;;5.93;;
81648;SDS011;71057;51.436;6.768;2023-12-20T02:39:13;13.17;;;5.27;;
81648;SDS011;71057;51.436;6.768;2023-12-20T02:41:39;16.25;;;5.78;;
81648;SDS011;71057;51.436;6.768;2023-12-20T02:44:04;8.50;;;4.90;;
81648;SDS011;71057;51.436;6.768;2023-12-20T02:46:29;15.02;;;6.20;;
81648;SDS011;71057;51.436;6.768;2023-12-20T02:48:55;9.75;;;4.65;;
81648;SDS011;71057;51.436;6.768;2023-12-20T02:51:20;11.20;;;5.50;;
81648;SDS011;71057;51.436;6.768;2023-12-20T02:53:45;10.30;;;5.57;;
81648;SDS011;71057;51.436;6.768;2023-12-20T02:56:11;15.17;;;5.60;;
81648;SDS011;71057;51.436;6.768;2023-12-20T02:58:36;9.57;;;4.60;;
81648;SDS011;71057;51.436;6.768;2023-12-20T03:01:01;12.70;;;5.25;;
81648;SDS011;71057;51.436;6.768;2023-12-20T03:03:27;12.65;;;4.88;;
81648;SDS011;71057;51.436;6.768;2023-12-20T03:05:52;12.55;;;5.05;;
81648;SDS011;71057;51.436;6.768;2023-12-20T03:08:17;10.30;;;5.00;;
81648;SDS011;71057;51.436;6.768;2023-12-20T03:10:43;14.50;;;3.97;;
81648;SDS011;71057;51.436;6.768;2023-12-20T03:13:08;13.20;;;4.15;;
81648;SDS011;71057;51.436;6.768;2023-12-20T03:15:34;8.13;;;3.58;;
81648;SDS011;71057;51.436;6.768;2023-12-20T03:17:59;9.98;;;4.20;;
81648;SDS011;71057;51.436;6.768;2023-12-20T03:20:25;10.90;;;4.20;;
81648;SDS011;71057;51.436;6.768;2023-12-20T03:22:53;8.75;;;3.83;;
81648;SDS011;71057;51.436;6.768;2023-12-20T03:25:18;10.47;;;2.70;;
81648;SDS011;71057;51.436;6.768;2023-12-20T03:27:43;10.93;;;2.73;;
81648;SDS011;71057;51.436;6.768;2023-12-20T03:30:09;14.50;;;3.80;;
81648;SDS011;71057;51.436;6.768;2023-12-20T03:32:34;8.40;;;3.33;;
81648;SDS011;71057;51.436;6.768;2023-12-20T03:35:00;9.80;;;2.63;;
81648;SDS011;71057;51.436;6.768;2023-12-20T03:37:25;13.60;;;4.10;;
81648;SDS011;71057;51.436;6.768;2023-12-20T03:39:50;8.87;;;2.70;;
81648;SDS011;71057;51.436;6.768;2023-12-20T03:42:16;8.97;;;2.80;;
81648;SDS011;71057;51.436;6.768;2023-12-20T03:44:41;6.40;;;2.40;;
81648;SDS011;71057;51.436;6.768;2023-12-20T03:47:06;8.63;;;2.50;;
81648;SDS011;71057;51.436;6.768;2023-12-20T03:49:32;7.78;;;4.25;;
81648;SDS011;71057;51.436;6.768;2023-12-20T03:51:58;11.38;;;3.45;;
81648;SDS011;71057;51.436;6.768;2023-12-20T03:54:23;11.67;;;3.50;;
81648;SDS011;71057;51.436;6.768;2023-12-20T03:56:49;14.30;;;2.80;;
81648;SDS011;71057;51.436;6.768;2023-12-20T03:59:15;8.27;;;3.22;;
81648;SDS011;71057;51.436;6.768;2023-12-20T04:01:43;9.52;;;2.47;;
81648;SDS011;71057;51.436;6.768;2023-12-20T04:04:09;5.93;;;2.40;;
81648;SDS011;71057;51.436;6.768;2023-12-20T04:06:35;9.68;;;2.33;;
81648;SDS011;71057;51.436;6.768;2023-12-20T04:09:00;10.77;;;2.95;;
81648;SDS011;71057;51.436;6.768;2023-12-20T04:11:26;6.57;;;3.73;;
81648;SDS011;71057;51.436;6.768;2023-12-20T04:13:51;9.53;;;2.07;;
81648;SDS011;71057;51.436;6.768;2023-12-20T04:16:16;7.07;;;1.93;;
81648;SDS011;71057;51.436;6.768;2023-12-20T04:18:42;12.13;;;3.13;;
81648;SDS011;71057;51.436;6.768;2023-12-20T04:21:07;7.80;;;2.50;;
81648;SDS011;71057;51.436;6.768;2023-12-20T04:23:32;9.02;;;2.90;;
81648;SDS011;71057;51.436;6.768;2023-12-20T04:25:58;13.03;;;3.60;;
81648;SDS011;71057;51.436;6.768;2023-12-20T04:28:23;11.43;;;3.15;;
81648;SDS011;71057;51.436;6.768;2023-12-20T04:30:48;13.40;;;3.40;;
81648;SDS011;71057;51.436;6.768;2023-12-20T04:33:14;10.57;;;3.15;;
81648;SDS011;71057;51.436;6.768;2023-12-20T04:35:39;9.32;;;3.45;;
81648;SDS011;71057;51.436;6.768;2023-12-20T04:38:05;10.90;;;3.08;;
81648;SDS011;71057;51.436;6.768;2023-12-20T04:40:31;7.95;;;3.10;;
81648;SDS011;71057;51.436;6.768;2023-12-20T04:42:56;7.43;;;2.80;;
81648;SDS011;71057;51.436;6.768;2023-12-20T04:45:21;14.53;;;3.73;;
81648;SDS011;71057;51.436;6.768;2023-12-20T04:47:48;11.13;;;3.88;;
81648;SDS011;71057;51.436;6.768;2023-12-20T04:50:13;8.10;;;3.20;;
81648;SDS011;71057;51.436;6.768;2023-12-20T04:52:39;13.85;;;3.90;;
81648;SDS011;71057;51.436;6.768;2023-12-20T04:55:05;7.25;;;3.28;;
81648;SDS011;71057;51.436;6.768;2023-12-20T04:57:30;14.10;;;4.43;;
81648;SDS011;71057;51.436;6.768;2023-12-20T04:59:55;10.57;;;4.10;;
81648;SDS011;71057;51.436;6.768;2023-12-20T05:02:21;14.37;;;4.20;;
81648;SDS011;71057;51.436;6.768;2023-12-20T05:04:46;10.57;;;4.25;;
81648;SDS011;71057;51.436;6.768;2023-12-20T05:07:11;10.85;;;4.20;;
81648;SDS011;71057;51.436;6.768;2023-12-20T05:09:37;15.43;;;5.47;;
81648;SDS011;71057;51.436;6.768;2023-12-20T05:12:02;11.57;;;5.70;;
81648;SDS011;71057;51.436;6.768;2023-12-20T05:14:28;11.40;;;4.05;;
81648;SDS011;71057;51.436;6.768;2023-12-20T05:16:53;10.53;;;4.10;;
81648;SDS011;71057;51.436;6.768;2023-12-20T05:19:18;11.53;;;4.80;;
81648;SDS011;71057;51.436;6.768;2023-12-20T05:21:43;13.13;;;5.23;;
81648;SDS011;71057;51.436;6.768;2023-12-20T05:24:09;8.68;;;4.20;;
81648;SDS011;71057;51.436;6.768;2023-12-20T05:26:34;16.47;;;5.13;;
81648;SDS011;71057;51.436;6.768;2023-12-20T05:29:01;14.57;;;5.00;;
81648;SDS011;71057;51.436;6.768;2023-12-20T05:31:26;12.05;;;5.28;;
81648;SDS011;71057;51.436;6.768;2023-12-20T05:33:52;10.25;;;4.35;;
81648;SDS011;71057;51.436;6.768;2023-12-20T05:36:17;22.57;;;5.97;;
81648;SDS011;71057;51.436;6.768;2023-12-20T05:38:43;10.88;;;4.45;;
81648;SDS011;71057;51.436;6.768;2023-12-20T05:41:08;13.68;;;5.30;;
81648;SDS011;71057;51.436;6.768;2023-12-20T05:43:34;9.90;;;4.43;;
81648;SDS011;71057;51.436;6.768;2023-12-20T05:45:59;15.33;;;4.57;;
81648;SDS011;71057;51.436;6.768;2023-12-20T05:48:24;14.88;;;3.80;;
81648;SDS011;71057;51.436;6.768;2023-12-20T05:50:50;13.75;;;4.25;;
81648;SDS011;71057;51.436;6.768;2023-12-20T05:53:15;16.33;;;4.30;;
81648;SDS011;71057;51.436;6.768;2023-12-20T05:55:40;11.00;;;4.37;;
81648;SDS011;71057;51.436;6.768;2023-12-20T05:58:05;12.10;;;4.17;;
81648;SDS011;71057;51.436;6.768;2023-12-20T06:00:31;13.13;;;5.13;;
81648;SDS011;71057;51.436;6.768;2023-12-20T06:02:56;10.70;;;4.90;;
81648;SDS011;71057;51.436;6.768;2023-12-20T06:05:21;12.77;;;4.13;;
81648;SDS011;71057;51.436;6.768;2023-12-20T06:07:47;10.85;;;4.95;;
81648;SDS011;71057;51.436;6.768;2023-12-20T06:10:13;15.60;;;4.25;;
81648;SDS011;71057;51.436;6.768;2023-12-20T06:12:39;10.10;;;4.15;;
81648;SDS011;71057;51.436;6.768;2023-12-20T06:15:04;9.07;;;4.38;;
81648;SDS011;71057;51.436;6.768;2023-12-20T06:17:30;13.13;;;4.68;;
81648;SDS011;71057;51.436;6.768;2023-12-20T06:19:56;14.02;;;5.15;;
81648;SDS011;71057;51.436;6.768;2023-12-20T06:22:22;10.77;;;4.53;;
81648;SDS011;71057;51.436;6.768;2023-12-20T06:24:47;10.90;;;4.40;;
81648;SDS011;71057;51.436;6.768;2023-12-20T06:27:13;12.45;;;3.88;;
81648;SDS011;71057;51.436;6.768;2023-12-20T06:29:38;10.18;;;3.75;;
81648;SDS011;71057;51.436;6.768;2023-12-20T06:32:03;14.37;;;4.73;;
81648;SDS011;71057;51.436;6.768;2023-12-20T06:34:29;10.52;;;3.92;;
81648;SDS011;71057;51.436;6.768;2023-12-20T06:36:54;16.17;;;4.55;;
81648;SDS011;71057;51.436;6.768;2023-12-20T06:39:20;14.30;;;4.63;;
81648;SDS011;71057;51.436;6.768;2023-12-20T06:41:45;13.02;;;4.68;;
81648;SDS011;71057;51.436;6.768;2023-12-20T06:44:10;14.00;;;4.95;;
81648;SDS011;71057;51.436;6.768;2023-12-20T06:46:35;14.33;;;4.63;;
81648;SDS011;71057;51.436;6.768;2023-12-20T06:49:01;9.00;;;3.63;;
81648;SDS011;71057;51.436;6.768;2023-12-20T06:51:26;11.13;;;3.88;;
81648;SDS011;71057;51.436;6.768;2023-12-20T06:53:52;15.07;;;5.05;;
81648;SDS011;71057;51.436;6.768;2023-12-20T06:56:17;10.18;;;4.35;;
81648;SDS011;71057;51.436;6.768;2023-12-20T06:58:43;14.48;;;5.15;;
81648;SDS011;71057;51.436;6.768;2023-12-20T07:01:11;11.77;;;4.45;;
81648;SDS011;71057;51.436;6.768;2023-12-20T07:03:37;14.88;;;3.65;;
81648;SDS011;71057;51.436;6.768;2023-12-20T07:06:02;11.93;;;4.27;;
81648;SDS011;71057;51.436;6.768;2023-12-20T07:08:28;9.25;;;3.53;;
81648;SDS011;71057;51.436;6.768;2023-12-20T07:10:54;16.85;;;4.97;;
81648;SDS011;71057;51.436;6.768;2023-12-20T07:13:19;13.17;;;3.87;;
81648;SDS011;71057;51.436;6.768;2023-12-20T07:15:44;13.40;;;5.23;;
81648;SDS011;71057;51.436;6.768;2023-12-20T07:18:09;15.40;;;4.23;;
81648;SDS011;71057;51.436;6.768;2023-12-20T07:20:35;11.60;;;4.13;;
81648;SDS011;71057;51.436;6.768;2023-12-20T07:23:00;15.67;;;4.23;;
81648;SDS011;71057;51.436;6.768;2023-12-20T07:25:25;13.48;;;3.75;;
81648;SDS011;71057;51.436;6.768;2023-12-20T07:27:51;8.57;;;4.25;;
81648;SDS011;71057;51.436;6.768;2023-12-20T07:30:16;11.40;;;4.80;;
81648;SDS011;71057;51.436;6.768;2023-12-20T07:32:42;10.00;;;4.15;;
81648;SDS011;71057;51.436;6.768;2023-12-20T07:35:07;16.03;;;4.17;;
81648;SDS011;71057;51.436;6.768;2023-12-20T07:37:32;14.45;;;4.82;;
81648;SDS011;71057;51.436;6.768;2023-12-20T07:39:58;11.87;;;4.70;;
81648;SDS011;71057;51.436;6.768;2023-12-20T07:42:23;10.20;;;3.70;;
81648;SDS011;71057;51.436;6.768;2023-12-20T07:44:48;11.87;;;4.40;;
81648;SDS011;71057;51.436;6.768;2023-12-20T07:47:13;13.40;;;4.10;;
81648;SDS011;71057;51.436;6.768;2023-12-20T07:49:42;6.80;;;3.38;;
81648;SDS011;71057;51.436;6.768;2023-12-20T07:52:07;10.82;;;3.97;;
81648;SDS011;71057;51.436;6.768;2023-12-20T07:54:33;11.25;;;4.60;;
81648;SDS011;71057;51.436;6.768;2023-12-20T07:56:58;12.95;;;5.13;;
81648;SDS011;71057;51.436;6.768;2023-12-20T07:59:23;9.33;;;4.67;;
81648;SDS011;71057;51.436;6.768;2023-12-20T08:01:49;12.70;;;4.97;;
81648;SDS011;71057;51.436;6.768;2023-12-20T08:04:14;15.13;;;4.17;;
81648;SDS011;71057;51.436;6.768;2023-12-20T08:06:39;9.17;;;3.63;;
81648;SDS011;71057;51.436;6.768;2023-12-20T08:09:04;10.83;;;4.13;;
81648;SDS011;71057;51.436;6.768;2023-12-20T08:11:30;13.50;;;5.57;;
81648;SDS011;71057;51.436;6.768;2023-12-20T08:13:56;18.10;;;5.75;;
81648;SDS011;71057;51.436;6.768;2023-12-20T08:16:21;11.02;;;4.90;;
81648;SDS011;71057;51.436;6.768;2023-12-20T08:18:47;14.90;;;6.00;;
81648;SDS011;71057;51.436;6.768;2023-12-20T08:21:13;15.48;;;5.47;;
81648;SDS011;71057;51.436;6.768;2023-12-20T08:23:38;12.27;;;4.75;;
81648;SDS011;71057;51.436;6.768;2023-12-20T08:26:06;14.33;;;4.63;;
81648;SDS011;71057;51.436;6.768;2023-12-20T08:28:32;12.63;;;5.35;;
81648;SDS011;71057;51.436;6.768;2023-12-20T08:30:58;12.05;;;4.55;;
81648;SDS011;71057;51.436;6.768;2023-12-20T08:33:24;11.23;;;4.60;;
81648;SDS011;71057;51.436;6.768;2023-12-20T08:35:49;11.00;;;5.10;;
81648;SDS011;71057;51.436;6.768;2023-12-20T08:38:14;18.20;;;5.97;;
81648;SDS011;71057;51.436;6.768;2023-12-20T08:40:40;9.50;;;3.33;;
81648;SDS011;71057;51.436;6.768;2023-12-20T08:43:05;9.10;;;3.50;;
81648;SDS011;71057;51.436;6.768;2023-12-20T08:45:30;9.57;;;3.58;;
81648;SDS011;71057;51.436;6.768;2023-12-20T08:47:55;9.13;;;3.50;;
81648;SDS011;71057;51.436;6.768;2023-12-20T08:50:21;13.63;;;3.33;;
81648;SDS011;71057;51.436;6.768;2023-12-20T08:52:46;8.70;;;3.53;;
81648;SDS011;71057;51.436;6.768;2023-12-20T08:55:12;10.48;;;3.70;;
81648;SDS011;71057;51.436;6.768;2023-12-20T08:57:37;8.77;;;2.97;;
81648;SDS011;71057;51.436;6.768;2023-12-20T09:00:03;13.15;;;3.60;;
81648;SDS011;71057;51.436;6.768;2023-12-20T09:02:29;16.23;;;3.75;;
81648;SDS011;71057;51.436;6.768;2023-12-20T09:04:54;8.63;;;2.87;;
81648;SDS011;71057;51.436;6.768;2023-12-20T09:07:21;8.13;;;3.15;;
81648;SDS011;71057;51.436;6.768;2023-12-20T09:09:51;13.52;;;3.65;;
81648;SDS011;71057;51.436;6.768;2023-12-20T09:12:18;13.05;;;3.70;;
81648;SDS011;71057;51.436;6.768;2023-12-20T09:14:44;12.57;;;3.47;;
81648;SDS011;71057;51.436;6.768;2023-12-20T09:17:10;11.90;;;3.65;;
81648;SDS011;71057;51.436;6.768;2023-12-20T09:19:37;16.02;;;4.07;;
81648;SDS011;71057;51.436;6.768;2023-12-20T09:22:02;12.70;;;3.30;;
81648;SDS011;71057;51.436;6.768;2023-12-20T09:24:28;8.00;;;3.05;;
81648;SDS011;71057;51.436;6.768;2023-12-20T09:26:54;13.75;;;3.30;;
81648;SDS011;71057;51.436;6.768;2023-12-20T09:29:20;9.07;;;3.13;;
81648;SDS011;71057;51.436;6.768;2023-12-20T09:31:45;7.18;;;3.92;;
81648;SDS011;71057;51.436;6.768;2023-12-20T09:34:11;11.25;;;4.03;;
81648;SDS011;71057;51.436;6.768;2023-12-20T09:36:37;13.23;;;4.72;;
81648;SDS011;71057;51.436;6.768;2023-12-20T09:39:05;14.18;;;4.18;;
81648;SDS011;71057;51.436;6.768;2023-12-20T09:41:31;12.02;;;4.28;;
81648;SDS011;71057;51.436;6.768;2023-12-20T09:44:03;14.73;;;3.47;;
81648;SDS011;71057;51.436;6.768;2023-12-20T09:46:28;8.75;;;2.78;;
81648;SDS011;71057;51.436;6.768;2023-12-20T09:48:58;8.85;;;2.95;;
81648;SDS011;71057;51.436;6.768;2023-12-20T09:51:25;14.65;;;3.83;;
81648;SDS011;71057;51.436;6.768;2023-12-20T09:53:53;12.57;;;4.05;;
81648;SDS011;71057;51.436;6.768;2023-12-20T09:56:19;8.68;;;3.83;;
81648;SDS011;71057;51.436;6.768;2023-12-20T09:58:46;12.07;;;3.60;;
81648;SDS011;71057;51.436;6.768;2023-12-20T10:01:12;11.88;;;3.85;;
81648;SDS011;71057;51.436;6.768;2023-12-20T10:03:37;7.95;;;3.70;;
81648;SDS011;71057;51.436;6.768;2023-12-20T10:08:31;9.48;;;3.28;;
81648;SDS011;71057;51.436;6.768;2023-12-20T10:10:57;6.90;;;3.00;;
81648;SDS011;71057;51.436;6.768;2023-12-20T10:13:27;6.03;;;3.25;;
81648;SDS011;71057;51.436;6.768;2023-12-20T10:15:54;7.75;;;3.63;;
81648;SDS011;71057;51.436;6.768;2023-12-20T10:18:20;9.25;;;2.90;;
81648;SDS011;71057;51.436;6.768;2023-12-20T10:20:46;8.15;;;3.17;;
81648;SDS011;71057;51.436;6.768;2023-12-20T10:23:12;12.75;;;3.67;;
81648;SDS011;71057;51.436;6.768;2023-12-20T10:25:38;9.82;;;3.45;;
81648;SDS011;71057;51.436;6.768;2023-12-20T10:28:14;12.93;;;3.60;;
81648;SDS011;71057;51.436;6.768;2023-12-20T10:30:46;12.82;;;3.78;;
81648;SDS011;71057;51.436;6.768;2023-12-20T10:33:11;11.02;;;3.35;;
81648;SDS011;71057;51.436;6.768;2023-12-20T10:35:37;10.90;;;3.17;;
81648;SDS011;71057;51.436;6.768;2023-12-20T10:38:04;9.70;;;3.05;;
81648;SDS011;71057;51.436;6.768;2023-12-20T10:40:30;10.65;;;3.60;;
81648;SDS011;71057;51.436;6.768;2023-12-20T10:42:56;13.57;;;4.50;;
81648;SDS011;71057;51.436;6.768;2023-12-20T10:45:23;13.60;;;3.58;;
81648;SDS011;71057;51.436;6.768;2023-12-20T10:47:48;12.00;;;3.92;;
81648;SDS011;71057;51.436;6.768;2023-12-20T10:50:15;12.15;;;3.45;;
81648;SDS011;71057;51.436;6.768;2023-12-20T10:52:40;9.23;;;3.15;;
81648;SDS011;71057;51.436;6.768;2023-12-20T10:55:07;9.35;;;3.28;;
81648;SDS011;71057;51.436;6.768;2023-12-20T10:57:33;9.80;;;3.85;;
81648;SDS011;71057;51.436;6.768;2023-12-20T11:00:01;10.02;;;3.95;;
81648;SDS011;71057;51.436;6.768;2023-12-20T11:02:35;13.63;;;4.78;;
81648;SDS011;71057;51.436;6.768;2023-12-20T11:08:02;9.48;;;4.63;;
81648;SDS011;71057;51.436;6.768;2023-12-20T11:13:17;8.05;;;3.55;;
81648;SDS011;71057;51.436;6.768;2023-12-20T11:15:47;8.25;;;3.17;;
81648;SDS011;71057;51.436;6.768;2023-12-20T11:18:12;13.60;;;5.95;;
81648;SDS011;71057;51.436;6.768;2023-12-20T11:20:39;10.40;;;4.00;;
81648;SDS011;71057;51.436;6.768;2023-12-20T11:28:29;10.52;;;4.45;;
81648;SDS011;71057;51.436;6.768;2023-12-20T11:30:58;9.88;;;3.70;;
81648;SDS011;71057;51.436;6.768;2023-12-20T11:33:25;10.77;;;3.90;;
81648;SDS011;71057;51.436;6.768;2023-12-20T11:35:57;15.85;;;4.35;;
81648;SDS011;71057;51.436;6.768;2023-12-20T11:38:27;8.63;;;5.10;;
81648;SDS011;71057;51.436;6.768;2023-12-20T11:40:53;9.57;;;4.43;;
81648;SDS011;71057;51.436;6.768;2023-12-20T11:43:30;11.20;;;4.30;;
81648;SDS011;71057;51.436;6.768;2023-12-20T11:46:03;13.52;;;4.30;;
81648;SDS011;71057;51.436;6.768;2023-12-20T11:48:34;13.13;;;4.93;;
81648;SDS011;71057;51.436;6.768;2023-12-20T11:51:00;8.68;;;3.95;;
81648;SDS011;71057;51.436;6.768;2023-12-20T11:53:26;8.48;;;5.10;;
81648;SDS011;71057;51.436;6.768;2023-12-20T11:55:51;11.57;;;4.70;;
81648;SDS011;71057;51.436;6.768;2023-12-20T11:58:17;10.93;;;4.22;;
81648;SDS011;71057;51.436;6.768;2023-12-20T12:00:42;10.20;;;4.10;;
81648;SDS011;71057;51.436;6.768;2023-12-20T12:03:08;10.70;;;3.85;;
81648;SDS011;71057;51.436;6.768;2023-12-20T12:05:34;10.90;;;4.28;;
81648;SDS011;71057;51.436;6.768;2023-12-20T12:08:00;13.43;;;4.53;;
81648;SDS011;71057;51.436;6.768;2023-12-20T12:10:26;14.15;;;4.63;;
81648;SDS011;71057;51.436;6.768;2023-12-20T12:12:51;7.82;;;4.13;;
81648;SDS011;71057;51.436;6.768;2023-12-20T12:15:17;10.32;;;3.55;;
81648;SDS011;71057;51.436;6.768;2023-12-20T12:17:42;10.68;;;4.50;;
81648;SDS011;71057;51.436;6.768;2023-12-20T12:20:07;8.48;;;3.55;;
81648;SDS011;71057;51.436;6.768;2023-12-20T12:22:34;13.23;;;3.45;;
81648;SDS011;71057;51.436;6.768;2023-12-20T12:25:11;8.25;;;3.78;;
81648;SDS011;71057;51.436;6.768;2023-12-20T12:27:39;8.25;;;3.30;;
81648;SDS011;71057;51.436;6.768;2023-12-20T12:30:05;10.57;;;3.28;;
81648;SDS011;71057;51.436;6.768;2023-12-20T12:32:34;10.57;;;3.67;;
81648;SDS011;71057;51.436;6.768;2023-12-20T12:35:02;14.63;;;5.00;;
81648;SDS011;71057;51.436;6.768;2023-12-20T12:37:28;8.35;;;3.58;;
81648;SDS011;71057;51.436;6.768;2023-12-20T12:39:54;8.40;;;4.28;;
81648;SDS011;71057;51.436;6.768;2023-12-20T12:42:20;10.25;;;3.90;;
81648;SDS011;71057;51.436;6.768;2023-12-20T12:44:46;12.25;;;3.45;;
81648;SDS011;71057;51.436;6.768;2023-12-20T12:47:11;8.40;;;4.50;;
81648;SDS011;71057;51.436;6.768;2023-12-20T12:49:37;12.85;;;4.35;;
81648;SDS011;71057;51.436;6.768;2023-12-20T12:52:02;10.18;;;4.38;;
81648;SDS011;71057;51.436;6.768;2023-12-20T12:54:28;11.32;;;4.30;;
81648;SDS011;71057;51.436;6.768;2023-12-20T12:56:53;11.47;;;4.47;;
81648;SDS011;71057;51.436;6.768;2023-12-20T12:59:19;12.13;;;4.90;;
81648;SDS011;71057;51.436;6.768;2023-12-20T13:01:44;11.80;;;4.65;;
81648;SDS011;71057;51.436;6.768;2023-12-20T13:04:10;9.00;;;4.65;;
81648;SDS011;71057;51.436;6.768;2023-12-20T13:06:38;10.40;;;4.75;;
81648;SDS011;71057;51.436;6.768;2023-12-20T13:09:04;11.25;;;5.25;;
81648;SDS011;71057;51.436;6.768;2023-12-20T13:11:30;7.80;;;4.82;;
81648;SDS011;71057;51.436;6.768;2023-12-20T13:13:56;8.70;;;4.28;;
81648;SDS011;71057;51.436;6.768;2023-12-20T13:16:22;12.50;;;5.15;;
81648;SDS011;71057;51.436;6.768;2023-12-20T13:18:48;11.40;;;5.30;;
81648;SDS011;71057;51.436;6.768;2023-12-20T13:21:13;10.70;;;5.27;;
81648;SDS011;71057;51.436;6.768;2023-12-20T13:23:38;14.40;;;5.40;;
81648;SDS011;71057;51.436;6.768;2023-12-20T13:26:04;14.80;;;6.47;;
81648;SDS011;71057;51.436;6.768;2023-12-20T13:28:29;12.70;;;5.70;;
81648;SDS011;71057;51.436;6.768;2023-12-20T13:30:54;11.40;;;6.00;;
81648;SDS011;71057;51.436;6.768;2023-12-20T13:33:20;13.23;;;5.75;;
81648;SDS011;71057;51.436;6.768;2023-12-20T13:35:45;10.03;;;6.00;;
81648;SDS011;71057;51.436;6.768;2023-12-20T13:38:12;11.60;;;5.78;;
81648;SDS011;71057;51.436;6.768;2023-12-20T13:40:38;12.48;;;6.28;;
81648;SDS011;71057;51.436;6.768;2023-12-20T13:43:03;8.80;;;4.60;;
81648;SDS011;71057;51.436;6.768;2023-12-20T13:45:28;19.80;;;7.88;;
81648;SDS011;71057;51.436;6.768;2023-12-20T13:47:54;14.95;;;5.95;;
81648;SDS011;71057;51.436;6.768;2023-12-20T13:50:19;12.87;;;5.20;;
81648;SDS011;71057;51.436;6.768;2023-12-20T13:52:44;11.27;;;6.40;;
81648;SDS011;71057;51.436;6.768;2023-12-20T13:55:11;13.25;;;6.75;;
81648;SDS011;71057;51.436;6.768;2023-12-20T13:57:36;10.25;;;6.00;;
81648;SDS011;71057;51.436;6.768;2023-12-20T14:00:06;12.18;;;6.03;;
81648;SDS011;71057;51.436;6.768;2023-12-20T14:02:39;13.75;;;5.78;;
81648;SDS011;71057;51.436;6.768;2023-12-20T14:05:04;13.57;;;6.20;;
81648;SDS011;71057;51.436;6.768;2023-12-20T14:07:31;15.57;;;6.57;;
81648;SDS011;71057;51.436;6.768;2023-12-20T14:09:56;18.92;;;7.32;;
81648;SDS011;71057;51.436;6.768;2023-12-20T14:12:21;10.70;;;6.37;;
81648;SDS011;71057;51.436;6.768;2023-12-20T14:14:47;17.73;;;7.83;;
81648;SDS011;71057;51.436;6.768;2023-12-20T14:17:12;10.90;;;5.87;;
81648;SDS011;71057;51.436;6.768;2023-12-20T14:19:37;12.07;;;6.13;;
81648;SDS011;71057;51.436;6.768;2023-12-20T14:22:04;13.95;;;6.72;;
81648;SDS011;71057;51.436;6.768;2023-12-20T14:24:29;13.93;;;5.63;;
81648;SDS011;71057;51.436;6.768;2023-12-20T14:26:55;8.73;;;5.60;;
81648;SDS011;71057;51.436;6.768;2023-12-20T14:29:20;14.23;;;6.25;;
81648;SDS011;71057;51.436;6.768;2023-12-20T14:31:46;15.55;;;6.80;;
81648;SDS011;71057;51.436;6.768;2023-12-20T14:34:11;16.08;;;6.97;;
81648;SDS011;71057;51.436;6.768;2023-12-20T14:36:37;14.07;;;6.13;;
81648;SDS011;71057;51.436;6.768;2023-12-20T14:39:03;13.82;;;6.32;;
81648;SDS011;71057;51.436;6.768;2023-12-20T14:41:29;12.32;;;5.95;;
81648;SDS011;71057;51.436;6.768;2023-12-20T14:43:55;9.65;;;4.95;;
81648;SDS011;71057;51.436;6.768;2023-12-20T14:46:21;11.88;;;5.82;;